createdAt,value
2023-03-27T00:01:30.771Z,60.87
2023-03-27T00:03:57.837Z,66.16
2023-03-27T00:06:27.606Z,66.59
2023-03-27T00:08:54.562Z,61.31
2023-03-27T00:11:25.198Z,55.65
2023-03-27T00:13:54.766Z,56.94
2023-03-27T00:16:23.111Z,58.59
2023-03-27T00:18:50.344Z,59.08
2023-03-27T00:21:17.382Z,67.50
2023-03-27T00:23:44.555Z,66.27
2023-03-27T00:26:15.583Z,61.42
2023-03-27T00:28:42.560Z,57.71
2023-03-27T00:31:14.465Z,57.42
2023-03-27T00:33:42.165Z,60.22
2023-03-27T00:36:10.421Z,65.27
2023-03-27T00:38:37.399Z,67.14
2023-03-27T00:41:05.212Z,62.41
2023-03-27T00:43:36.634Z,60.73
2023-03-27T00:46:18.936Z,60.51
2023-03-27T00:48:50.274Z,60.05
2023-03-27T00:51:20.104Z,58.10
2023-03-27T00:53:48.373Z,59.22
2023-03-27T00:56:16.820Z,60.34
2023-03-27T00:58:51.439Z,66.33
2023-03-27T01:01:20.230Z,68.09
2023-03-27T01:03:49.504Z,66.85
2023-03-27T01:06:17.551Z,64.99
2023-03-27T01:08:46.277Z,64.12
2023-03-27T01:11:13.292Z,63.56
2023-03-27T01:13:43.111Z,63.41
2023-03-27T01:16:23.362Z,63.44
2023-03-27T01:18:59.324Z,62.86
2023-03-27T01:21:54.104Z,62.19
2023-03-27T01:25:04.457Z,61.75
2023-03-27T01:27:58.761Z,62.00
2023-03-27T01:30:32.039Z,61.94
2023-03-27T01:33:01.956Z,62.43
2023-03-27T01:35:38.024Z,62.97
2023-03-27T01:38:11.077Z,62.52
2023-03-27T01:41:06.477Z,63.45
2023-03-27T01:43:51.950Z,63.10
2023-03-27T01:46:28.752Z,64.11
2023-03-27T01:49:02.970Z,64.30
2023-03-27T01:51:39.826Z,64.30
2023-03-27T01:54:24.965Z,64.50
2023-03-27T01:57:04.779Z,64.52
2023-03-27T01:59:36.694Z,63.67
2023-03-27T02:02:10.608Z,63.04
2023-03-27T02:05:01.406Z,62.56
2023-03-27T02:07:42.778Z,62.50
2023-03-27T02:10:15.497Z,62.28
2023-03-27T02:12:53.151Z,62.13
2023-03-27T02:18:13.104Z,61.21
2023-03-27T02:20:41.821Z,60.33
2023-03-27T02:23:08.995Z,59.99
2023-03-27T02:25:38.449Z,60.10
2023-03-27T02:28:24.094Z,59.82
2023-03-27T02:31:31.507Z,60.59
2023-03-27T02:34:13.581Z,59.97
2023-03-27T02:37:02.366Z,60.38
2023-03-27T02:40:10.469Z,60.93
2023-03-27T02:43:03.240Z,61.50
2023-03-27T02:46:05.644Z,60.96
2023-03-27T02:48:42.429Z,61.78
2023-03-27T02:51:11.746Z,61.38
2023-03-27T02:53:46.896Z,61.75
2023-03-27T02:56:16.532Z,61.81
2023-03-27T02:59:11.594Z,61.77
2023-03-27T03:01:41.217Z,61.26
2023-03-27T03:04:28.591Z,61.26
2023-03-27T03:07:07.259Z,61.16
2023-03-27T03:09:34.777Z,60.50
2023-03-27T03:12:08.394Z,61.30
2023-03-27T03:14:44.339Z,61.59
2023-03-27T03:17:12.632Z,60.59
2023-03-27T03:19:39.498Z,60.57
2023-03-27T03:22:07.046Z,60.41
2023-03-27T03:24:35.830Z,60.13
2023-03-27T03:27:05.958Z,60.06
2023-03-27T03:29:40.597Z,60.28
2023-03-27T03:32:13.342Z,60.49
2023-03-27T03:34:41.804Z,60.80
2023-03-27T03:37:11.265Z,60.72
2023-03-27T03:39:38.235Z,60.83
2023-03-27T03:42:06.087Z,60.76
2023-03-27T03:44:34.773Z,60.61
2023-03-27T03:47:09.257Z,60.73
2023-03-27T03:49:36.100Z,60.71
2023-03-27T03:52:04.728Z,60.57
2023-03-27T03:54:33.150Z,59.95
2023-03-27T03:57:00.211Z,59.63
2023-03-27T03:59:27.344Z,57.89
2023-03-27T04:02:29.799Z,57.99
2023-03-27T04:05:08.429Z,59.93
2023-03-27T04:07:36.438Z,64.97
2023-03-27T04:10:41.031Z,66.89
2023-03-27T04:13:14.769Z,65.79
2023-03-27T04:15:51.598Z,64.32
2023-03-27T04:18:35.721Z,63.08
2023-03-27T04:21:06.997Z,63.42
2023-03-27T04:23:34.007Z,62.58
2023-03-27T04:26:03.450Z,61.84
2023-03-27T04:28:55.987Z,61.96
2023-03-27T04:31:55.510Z,61.83
2023-03-27T04:34:50.402Z,61.73
2023-03-27T04:37:36.271Z,61.35
2023-03-27T04:40:22.031Z,60.59
2023-03-27T04:42:50.431Z,60.43
2023-03-27T04:45:20.655Z,60.53
2023-03-27T04:47:49.233Z,60.95
2023-03-27T04:50:16.543Z,61.78
2023-03-27T04:52:44.983Z,61.79
2023-03-27T04:55:12.462Z,61.33
2023-03-27T04:57:41.987Z,61.05
2023-03-27T05:00:17.255Z,60.89
2023-03-27T05:02:47.968Z,59.90
2023-03-27T05:05:20.698Z,57.61
2023-03-27T05:07:49.726Z,58.19
2023-03-27T05:10:21.544Z,59.27
2023-03-27T05:12:51.543Z,63.91
2023-03-27T05:15:19.458Z,67.07
2023-03-27T05:17:54.566Z,64.58
2023-03-27T05:20:24.352Z,62.08
2023-03-27T05:22:56.529Z,60.73
2023-03-27T05:25:28.886Z,60.11
2023-03-27T05:27:56.449Z,60.54
2023-03-27T05:30:27.139Z,61.74
2023-03-27T05:33:09.629Z,60.81
2023-03-27T05:35:37.935Z,58.26
2023-03-27T05:38:06.747Z,57.47
2023-03-27T05:40:35.898Z,58.89
2023-03-27T05:43:04.225Z,63.26
2023-03-27T05:45:32.699Z,64.24
2023-03-27T05:48:02.912Z,61.36
2023-03-27T05:50:34.786Z,57.99
2023-03-27T05:53:11.258Z,57.41
2023-03-27T05:55:42.565Z,58.94
2023-03-27T05:58:11.924Z,63.50
2023-03-27T06:00:44.446Z,65.44
2023-03-27T06:03:17.431Z,64.30
2023-03-27T06:06:00.313Z,62.07
2023-03-27T06:08:29.951Z,60.34
2023-03-27T06:10:57.798Z,57.07
2023-03-27T06:13:32.126Z,56.43
2023-03-27T06:16:07.615Z,57.43
2023-03-27T06:18:54.537Z,58.41
2023-03-27T06:21:22.837Z,59.97
2023-03-27T06:23:50.520Z,59.13
2023-03-27T06:26:18.904Z,58.97
2023-03-27T06:28:46.290Z,58.96
2023-03-27T06:31:15.025Z,58.58
2023-03-27T06:34:15.309Z,58.96
2023-03-27T06:37:08.391Z,60.21
2023-03-27T06:39:39.172Z,63.32
2023-03-27T06:42:06.065Z,63.76
2023-03-27T06:44:45.754Z,61.84
2023-03-27T06:47:24.289Z,58.61
2023-03-27T06:50:24.539Z,58.10
2023-03-27T06:52:52.086Z,59.52
2023-03-27T06:55:37.995Z,60.55
2023-03-27T06:58:04.961Z,63.62
2023-03-27T07:00:35.508Z,63.24
2023-03-27T07:03:32.437Z,62.04
2023-03-27T07:06:19.557Z,60.66
2023-03-27T07:08:57.654Z,57.60
2023-03-27T07:11:25.657Z,57.24
2023-03-27T07:13:58.102Z,57.64
2023-03-27T07:16:27.523Z,59.57
2023-03-27T07:18:54.831Z,59.98
2023-03-27T07:21:23.236Z,60.59
2023-03-27T07:23:50.305Z,61.43
2023-03-27T07:26:27.601Z,64.24
2023-03-27T07:29:00.777Z,64.54
2023-03-27T07:31:48.976Z,62.07
2023-03-27T07:34:16.978Z,59.79
2023-03-27T07:37:07.290Z,57.18
2023-03-27T07:39:34.278Z,57.55
2023-03-27T07:42:01.567Z,59.04
2023-03-27T07:44:48.215Z,59.73
2023-03-27T07:47:15.253Z,60.19
2023-03-27T07:49:42.153Z,60.66
2023-03-27T07:52:12.911Z,60.32
2023-03-27T07:55:01.899Z,59.27
2023-03-27T07:57:54.462Z,58.53
2023-03-27T08:00:26.178Z,56.02
2023-03-27T08:03:11.944Z,55.16
2023-03-27T08:05:43.414Z,54.64
2023-03-27T08:08:12.938Z,53.32
2023-03-27T08:10:53.948Z,50.27
2023-03-27T08:13:21.352Z,49.19
2023-03-27T08:15:48.811Z,48.79
2023-03-27T08:18:27.307Z,47.00
2023-03-27T08:20:58.672Z,45.89
2023-03-27T08:23:29.108Z,45.48
2023-03-27T08:26:05.932Z,43.22
2023-03-27T08:28:38.878Z,41.96
2023-03-27T08:31:15.288Z,41.60
2023-03-27T08:33:43.500Z,42.90
2023-03-27T08:36:14.862Z,43.82
2023-03-27T08:38:43.405Z,43.37
2023-03-27T08:41:24.733Z,43.14
2023-03-27T08:44:04.038Z,43.71
2023-03-27T08:47:06.151Z,43.08
2023-03-27T08:49:44.847Z,42.33
2023-03-27T08:52:27.469Z,43.34
2023-03-27T08:55:00.732Z,42.02
2023-03-27T08:57:35.201Z,41.22
2023-03-27T09:00:19.815Z,40.51
2023-03-27T09:03:01.296Z,41.27
2023-03-27T09:05:42.948Z,42.16
2023-03-27T09:08:25.975Z,42.68
2023-03-27T09:11:01.741Z,43.18
2023-03-27T09:13:49.137Z,42.55
2023-03-27T09:16:21.459Z,42.94
2023-03-27T09:19:00.732Z,43.98
2023-03-27T09:21:58.236Z,44.84
2023-03-27T09:24:52.423Z,45.50
2023-03-27T09:27:53.324Z,46.44
2023-03-27T09:30:43.884Z,46.93
2023-03-27T09:33:31.386Z,46.68
2023-03-27T09:35:59.313Z,47.46
2023-03-27T09:38:35.796Z,47.10
2023-03-27T09:41:11.806Z,46.78
2023-03-27T09:44:07.496Z,47.60
2023-03-27T09:46:42.878Z,47.98
2023-03-27T09:49:18.614Z,48.62
2023-03-27T09:51:52.332Z,49.35
2023-03-27T09:54:51.425Z,50.61
2023-03-27T09:57:18.752Z,51.18
2023-03-27T10:00:00.838Z,51.58
2023-03-27T10:02:31.938Z,52.41
2023-03-27T10:05:18.127Z,52.55
2023-03-27T10:07:47.598Z,53.47
2023-03-27T10:10:56.430Z,53.51
2023-03-27T10:13:48.592Z,53.73
2023-03-27T10:16:20.169Z,54.09
2023-03-27T10:18:59.998Z,54.52
2023-03-27T10:21:32.794Z,54.17
2023-03-27T10:24:17.561Z,54.27
2023-03-27T10:26:59.574Z,55.11
2023-03-27T10:29:29.625Z,55.25
2023-03-27T10:31:59.091Z,54.92
2023-03-27T10:34:53.007Z,54.44
2023-03-27T10:37:41.207Z,54.68
2023-03-27T10:40:29.974Z,54.97
2023-03-27T10:43:06.046Z,55.81
2023-03-27T10:45:48.289Z,56.07
2023-03-27T10:48:23.389Z,56.83
2023-03-27T10:50:58.010Z,57.18
2023-03-27T10:53:52.444Z,57.79
2023-03-27T10:56:31.452Z,58.58
2023-03-27T10:59:04.559Z,58.87
2023-03-27T11:01:42.699Z,59.29
2023-03-27T11:04:44.535Z,59.17
2023-03-27T11:07:20.923Z,59.28
2023-03-27T11:10:03.339Z,59.05
2023-03-27T11:12:37.204Z,58.07
2023-03-27T11:15:17.520Z,58.45
2023-03-27T11:17:52.405Z,58.43
2023-03-27T11:20:50.810Z,57.26
2023-03-27T11:23:33.527Z,56.68
2023-03-27T11:26:23.615Z,56.71
2023-03-27T11:29:04.365Z,56.81
2023-03-27T11:31:46.524Z,57.58
2023-03-27T11:34:36.662Z,57.27
2023-03-27T11:37:58.022Z,57.20
2023-03-27T11:40:39.566Z,56.21
2023-03-27T11:43:09.722Z,56.14
2023-03-27T11:45:47.541Z,55.89
2023-03-27T11:48:57.186Z,55.90
2023-03-27T11:51:24.500Z,55.32
2023-03-27T11:54:07.714Z,54.93
2023-03-27T11:56:58.122Z,54.97
2023-03-27T11:59:48.789Z,54.64
2023-03-27T12:02:31.624Z,54.11
2023-03-27T12:05:06.647Z,53.48
2023-03-27T12:08:27.435Z,53.97
2023-03-27T12:10:59.175Z,53.73
2023-03-27T12:14:23.812Z,54.27
2023-03-27T12:17:16.225Z,54.32
2023-03-27T12:20:31.095Z,53.26
2023-03-27T12:23:18.372Z,48.71
2023-03-27T12:26:31.274Z,46.44
2023-03-27T12:29:23.511Z,46.61
2023-03-27T12:32:04.936Z,46.68
2023-03-27T12:34:59.987Z,46.29
2023-03-27T12:37:45.771Z,47.47
2023-03-27T12:40:24.736Z,46.94
2023-03-27T12:42:54.371Z,46.55
2023-03-27T12:45:27.124Z,47.37
2023-03-27T12:48:10.680Z,47.57
2023-03-27T12:50:52.335Z,48.36
2023-03-27T12:53:20.099Z,48.38
2023-03-27T12:55:47.352Z,49.46
2023-03-27T12:58:34.650Z,50.29
2023-03-27T13:01:27.547Z,49.41
2023-03-27T13:04:11.165Z,49.45
2023-03-27T13:07:09.181Z,47.31
2023-03-27T13:10:25.763Z,45.60
2023-03-27T13:12:58.873Z,45.14
2023-03-27T13:16:07.217Z,43.89
2023-03-27T13:19:10.636Z,44.63
2023-03-27T13:22:28.174Z,45.84
2023-03-27T13:25:14.844Z,46.88
2023-03-27T13:27:47.828Z,47.67
2023-03-27T13:30:50.771Z,48.40
2023-03-27T13:33:47.772Z,48.26
2023-03-27T13:36:28.254Z,48.00
2023-03-27T13:38:55.246Z,47.13
2023-03-27T13:41:44.050Z,45.89
2023-03-27T13:44:35.601Z,46.29
2023-03-27T13:47:34.018Z,45.38
2023-03-27T13:50:25.027Z,44.21
2023-03-27T13:53:24.701Z,44.40
2023-03-27T13:56:31.650Z,44.98
2023-03-27T13:59:40.037Z,45.61
2023-03-27T14:02:37.005Z,46.28
2023-03-27T14:05:22.029Z,46.87
2023-03-27T14:08:31.623Z,47.14
2023-03-27T14:12:21.005Z,48.21
2023-03-27T14:15:30.250Z,49.69
2023-03-27T14:18:18.209Z,50.51
2023-03-27T14:20:50.678Z,51.33
2023-03-27T14:23:28.549Z,51.02
2023-03-27T14:26:18.641Z,51.10
2023-03-27T14:28:54.567Z,51.41
2023-03-27T14:31:35.626Z,52.08
2023-03-27T14:34:35.307Z,52.22
2023-03-27T14:37:30.977Z,52.29
2023-03-27T14:40:11.087Z,52.20
2023-03-27T14:42:48.351Z,51.38
2023-03-27T14:45:22.176Z,51.92
2023-03-27T14:47:57.472Z,52.38
2023-03-27T14:50:27.959Z,54.89
2023-03-27T14:52:59.065Z,54.92
2023-03-27T14:55:36.159Z,54.80
2023-03-27T14:58:36.044Z,56.45
2023-03-27T15:01:05.490Z,60.07
2023-03-27T15:03:39.566Z,55.52
2023-03-27T15:06:27.318Z,54.03
2023-03-27T15:09:05.829Z,54.29
2023-03-27T15:12:00.790Z,56.95
2023-03-27T15:14:33.308Z,59.15
2023-03-27T15:17:15.960Z,58.30
2023-03-27T15:19:56.384Z,55.71
2023-03-27T15:22:47.857Z,56.58
2023-03-27T15:25:31.064Z,57.16
2023-03-27T15:28:04.628Z,56.32
2023-03-27T15:30:51.691Z,56.08
2023-03-27T15:33:35.817Z,58.86
2023-03-27T15:36:11.835Z,62.77
2023-03-27T15:38:41.884Z,59.55
2023-03-27T15:41:48.113Z,54.35
2023-03-27T15:44:26.107Z,55.17
2023-03-27T15:46:59.493Z,56.79
2023-03-27T15:49:41.535Z,54.23
2023-03-27T15:52:47.202Z,55.80
2023-03-27T15:55:43.038Z,55.59
2023-03-27T15:58:29.795Z,57.95
2023-03-27T16:01:18.494Z,61.17
2023-03-27T16:11:45.947Z,53.56
2023-03-27T16:14:30.517Z,54.23
2023-03-27T16:17:14.944Z,55.41
2023-03-27T16:19:43.538Z,56.54
2023-03-27T16:22:10.586Z,57.31
2023-03-27T16:24:37.644Z,58.15
2023-03-27T16:27:04.605Z,58.94
2023-03-27T16:29:31.537Z,59.36
2023-03-27T16:31:58.525Z,60.10
2023-03-27T16:34:25.442Z,61.12
2023-03-27T16:36:52.638Z,62.20
2023-03-27T16:39:19.766Z,64.00
2023-03-27T16:41:46.912Z,60.81
2023-03-27T16:44:13.857Z,58.43
2023-03-27T16:46:41.116Z,57.88
2023-03-27T16:49:12.170Z,59.24
2023-03-27T16:51:39.314Z,60.23
2023-03-27T16:54:06.578Z,61.09
2023-03-27T16:56:35.427Z,61.90
2023-03-27T16:59:03.037Z,64.19
2023-03-27T17:01:30.752Z,62.89
2023-03-27T17:03:57.738Z,61.04
2023-03-27T17:06:25.551Z,57.78
2023-03-27T17:08:56.031Z,57.44
2023-03-27T17:11:23.724Z,59.49
2023-03-27T17:13:51.029Z,61.08
2023-03-27T17:16:18.019Z,60.87
2023-03-27T17:18:45.186Z,62.78
2023-03-27T17:21:12.234Z,63.76
2023-03-27T17:23:41.155Z,61.61
2023-03-27T17:26:11.019Z,58.49
2023-03-27T17:28:39.780Z,58.05
2023-03-27T17:31:07.634Z,59.68
2023-03-27T17:33:34.688Z,60.58
2023-03-27T17:36:07.983Z,61.45
2023-03-27T17:38:35.085Z,63.66
2023-03-27T17:41:02.422Z,62.99
2023-03-27T17:43:29.897Z,61.01
2023-03-27T17:45:57.148Z,58.40
2023-03-27T17:48:24.520Z,57.96
2023-03-27T17:51:05.058Z,58.92
2023-03-27T17:53:37.155Z,60.71
2023-03-27T17:56:04.443Z,61.83
2023-03-27T17:58:34.589Z,63.55
2023-03-27T18:01:12.627Z,64.13
2023-03-27T18:03:39.666Z,62.74
2023-03-27T18:06:06.993Z,60.56
2023-03-27T18:08:34.414Z,57.55
2023-03-27T18:11:01.545Z,57.29
2023-03-27T18:13:30.641Z,58.98
2023-03-27T18:15:58.669Z,60.40
2023-03-27T18:18:26.430Z,61.45
2023-03-27T18:20:57.322Z,63.05
2023-03-27T18:23:24.287Z,64.53
2023-03-27T18:25:51.118Z,61.79
2023-03-27T18:28:17.965Z,58.56
2023-03-27T18:30:44.971Z,58.78
2023-03-27T18:33:12.440Z,60.05
2023-03-27T18:35:39.537Z,60.84
2023-03-27T18:38:06.912Z,61.34
2023-03-27T18:40:33.955Z,61.32
2023-03-27T18:43:01.387Z,61.31
2023-03-27T18:45:28.540Z,61.19
2023-03-27T18:47:55.783Z,61.24
2023-03-27T18:50:23.771Z,61.21
2023-03-27T18:52:50.916Z,60.84
2023-03-27T18:55:18.850Z,60.55
2023-03-27T18:57:46.357Z,60.97
2023-03-27T19:00:18.620Z,61.37
2023-03-27T19:02:46.503Z,61.70
2023-03-27T19:05:15.527Z,61.25
2023-03-27T19:07:44.462Z,61.61
2023-03-27T19:10:14.125Z,60.96
2023-03-27T19:12:46.072Z,60.79
2023-03-27T19:15:32.476Z,61.11
2023-03-27T19:18:05.908Z,60.91
2023-03-27T19:21:00.095Z,60.76
2023-03-27T19:23:45.939Z,60.81
2023-03-27T19:26:17.822Z,58.69
2023-03-27T19:28:48.042Z,59.30
2023-03-27T19:31:16.110Z,59.92
2023-03-27T19:33:43.640Z,60.22
2023-03-27T19:36:13.052Z,60.49
2023-03-27T19:38:40.420Z,60.45
2023-03-27T19:41:11.252Z,59.15
2023-03-27T19:43:41.120Z,58.75
2023-03-27T19:46:16.270Z,57.75
2023-03-27T19:48:51.588Z,57.99
2023-03-27T19:51:37.631Z,58.15
2023-03-27T19:54:04.992Z,58.66
2023-03-27T19:56:32.597Z,58.19
2023-03-27T19:59:00.031Z,57.99
2023-03-27T20:01:28.749Z,58.32
2023-03-27T20:03:57.461Z,58.69
2023-03-27T20:06:26.348Z,58.37
2023-03-27T20:08:53.749Z,58.84
2023-03-27T20:11:20.810Z,58.02
2023-03-27T20:13:55.955Z,58.41
2023-03-27T20:16:26.650Z,58.07
2023-03-27T20:19:04.604Z,58.04
2023-03-27T20:21:35.339Z,58.23
2023-03-27T20:24:07.396Z,57.99
2023-03-27T20:26:39.576Z,57.75
2023-03-27T20:29:18.485Z,58.24
2023-03-27T20:31:46.241Z,58.43
2023-03-27T20:34:13.813Z,58.69
2023-03-27T20:36:40.972Z,58.98
2023-03-27T20:39:34.428Z,59.31
2023-03-27T20:42:01.472Z,59.66
2023-03-27T20:44:37.122Z,59.27
2023-03-27T20:47:12.389Z,59.59
2023-03-27T20:49:43.386Z,59.94
2023-03-27T20:52:13.333Z,59.72
2023-03-27T20:54:40.787Z,60.15
2023-03-27T20:57:10.404Z,59.31
2023-03-27T20:59:37.554Z,60.08
2023-03-27T21:02:05.382Z,59.55
2023-03-27T21:04:32.685Z,59.88
2023-03-27T21:06:59.746Z,60.05
2023-03-27T21:09:27.810Z,60.57
2023-03-27T21:11:55.927Z,60.56
2023-03-27T21:14:23.450Z,60.54
2023-03-27T21:16:50.601Z,60.98
2023-03-27T21:19:20.024Z,60.94
2023-03-27T21:21:47.432Z,60.60
2023-03-27T21:24:14.532Z,60.55
2023-03-27T21:26:42.000Z,60.94
2023-03-27T21:29:11.104Z,61.29
2023-03-27T21:31:39.541Z,61.75
2023-03-27T21:34:07.463Z,61.86
2023-03-27T21:36:35.295Z,61.71
2023-03-27T21:39:02.387Z,62.13
2023-03-27T21:41:29.694Z,62.10
2023-03-27T21:43:56.705Z,62.23
2023-03-27T21:46:23.892Z,66.73
2023-03-27T21:48:51.717Z,62.79
2023-03-27T21:51:19.524Z,51.64
2023-03-27T21:53:46.972Z,49.60
2023-03-27T21:56:14.124Z,51.22
2023-03-27T21:58:41.052Z,53.55
2023-03-27T22:01:08.468Z,54.85
2023-03-27T22:03:35.779Z,56.06
2023-03-27T22:06:12.603Z,57.73
2023-03-27T22:08:43.040Z,58.14
2023-03-27T22:11:11.912Z,59.12
2023-03-27T22:13:39.509Z,59.46
2023-03-27T22:16:15.037Z,59.83
2023-03-27T22:18:43.369Z,60.86
2023-03-27T22:21:25.560Z,61.59
2023-03-27T22:23:54.071Z,67.16
2023-03-27T22:26:33.398Z,65.94
2023-03-27T22:29:00.633Z,53.58
2023-03-27T22:31:29.442Z,50.41
2023-03-27T22:33:56.788Z,51.33
2023-03-27T22:36:23.981Z,53.61
2023-03-27T22:38:53.517Z,55.21
2023-03-27T22:41:20.511Z,56.64
2023-03-27T22:43:49.665Z,57.41
2023-03-27T22:46:19.686Z,58.39
2023-03-27T22:48:47.100Z,58.34
2023-03-27T22:51:14.461Z,57.79
2023-03-27T22:53:42.008Z,59.71
2023-03-27T22:56:10.043Z,60.22
2023-03-27T22:58:37.135Z,60.79
2023-03-27T23:01:05.928Z,65.34
2023-03-27T23:03:33.464Z,67.64
2023-03-27T23:06:00.937Z,56.44
2023-03-27T23:08:28.725Z,51.53
2023-03-27T23:11:01.319Z,52.38
2023-03-27T23:13:30.182Z,53.69
2023-03-27T23:15:57.774Z,55.50
2023-03-27T23:18:25.644Z,56.40
2023-03-27T23:20:58.021Z,57.68
2023-03-27T23:23:26.628Z,59.05
2023-03-27T23:25:54.272Z,59.85
2023-03-27T23:28:21.815Z,60.75
2023-03-27T23:30:56.793Z,61.05
2023-03-27T23:33:25.438Z,66.69
2023-03-27T23:35:54.158Z,67.32
2023-03-27T23:38:21.097Z,56.39
2023-03-27T23:40:54.902Z,52.16
2023-03-27T23:43:21.799Z,53.12
2023-03-27T23:45:48.753Z,55.71
2023-03-27T23:48:15.855Z,58.03
2023-03-27T23:50:42.815Z,59.24
2023-03-27T23:53:09.671Z,60.69
2023-03-27T23:55:36.603Z,60.71
2023-03-27T23:58:04.538Z,65.80
